sensor_id;sensor_type;location;lat;lon;timestamp;temperature;humidity
8563;DHT22;16392;52.508;13.468;2024-01-15T00:00:57;2.80;99.90
8563;DHT22;16392;52.508;13.468;2024-01-15T00:03:25;2.80;99.90
8563;DHT22;16392;52.508;13.468;2024-01-15T00:05:52;2.80;99.90
8563;DHT22;16392;52.508;13.468;2024-01-15T00:08:18;2.70;99.90
8563;DHT22;16392;52.508;13.468;2024-01-15T00:10:45;2.80;99.90
8563;DHT22;16392;52.508;13.468;2024-01-15T00:13:11;2.70;99.90
8563;DHT22;16392;52.508;13.468;2024-01-15T00:15:39;2.70;99.90
8563;DHT22;16392;52.508;13.468;2024-01-15T00:18:06;2.60;99.90
8563;DHT22;16392;52.508;13.468;2024-01-15T00:20:33;2.60;99.90
8563;DHT22;16392;52.508;13.468;2024-01-15T00:23:00;2.60;99.90
8563;DHT22;16392;52.508;13.468;2024-01-15T00:25:26;2.60;99.90
8563;DHT22;16392;52.508;13.468;2024-01-15T00:27:53;2.60;99.90
8563;DHT22;16392;52.508;13.468;2024-01-15T00:30:20;2.60;99.90
8563;DHT22;16392;52.508;13.468;2024-01-15T00:32:48;2.60;99.90
8563;DHT22;16392;52.508;13.468;2024-01-15T00:35:15;2.70;99.90
8563;DHT22;16392;52.508;13.468;2024-01-15T00:37:41;2.60;99.90
8563;DHT22;16392;52.508;13.468;2024-01-15T00:40:08;2.70;99.90
8563;DHT22;16392;52.508;13.468;2024-01-15T00:42:35;2.70;99.90
8563;DHT22;16392;52.508;13.468;2024-01-15T00:45:02;2.70;99.90
8563;DHT22;16392;52.508;13.468;2024-01-15T00:47:30;2.70;99.90
8563;DHT22;16392;52.508;13.468;2024-01-15T00:49:59;2.70;99.90
8563;DHT22;16392;52.508;13.468;2024-01-15T00:52:25;2.70;99.90
8563;DHT22;16392;52.508;13.468;2024-01-15T00:54:51;2.70;99.90
8563;DHT22;16392;52.508;13.468;2024-01-15T00:57:18;2.70;99.90
8563;DHT22;16392;52.508;13.468;2024-01-15T00:59:45;2.70;99.90
8563;DHT22;16392;52.508;13.468;2024-01-15T01:02:11;2.70;99.90
8563;DHT22;16392;52.508;13.468;2024-01-15T01:04:38;2.70;99.90
8563;DHT22;16392;52.508;13.468;2024-01-15T01:07:06;2.70;99.90
8563;DHT22;16392;52.508;13.468;2024-01-15T01:09:32;2.70;99.90
8563;DHT22;16392;52.508;13.468;2024-01-15T01:11:59;2.60;99.90
8563;DHT22;16392;52.508;13.468;2024-01-15T01:14:26;2.60;99.90
8563;DHT22;16392;52.508;13.468;2024-01-15T01:16:52;2.60;99.90
8563;DHT22;16392;52.508;13.468;2024-01-15T01:19:19;2.60;99.90
8563;DHT22;16392;52.508;13.468;2024-01-15T01:21:46;2.50;99.90
8563;DHT22;16392;52.508;13.468;2024-01-15T01:24:14;2.40;99.90
8563;DHT22;16392;52.508;13.468;2024-01-15T01:26:40;2.30;99.90
8563;DHT22;16392;52.508;13.468;2024-01-15T01:29:07;2.30;99.90
8563;DHT22;16392;52.508;13.468;2024-01-15T01:31:33;2.20;99.90
8563;DHT22;16392;52.508;13.468;2024-01-15T01:34:00;2.30;99.90
8563;DHT22;16392;52.508;13.468;2024-01-15T01:36:27;2.30;99.90
8563;DHT22;16392;52.508;13.468;2024-01-15T01:38:53;2.30;99.90
8563;DHT22;16392;52.508;13.468;2024-01-15T01:41:21;2.30;99.90
8563;DHT22;16392;52.508;13.468;2024-01-15T01:43:49;2.20;99.90
8563;DHT22;16392;52.508;13.468;2024-01-15T01:46:16;2.30;99.90
8563;DHT22;16392;52.508;13.468;2024-01-15T01:48:43;2.20;99.90
8563;DHT22;16392;52.508;13.468;2024-01-15T01:51:11;2.20;99.90
8563;DHT22;16392;52.508;13.468;2024-01-15T01:53:38;2.00;99.90
8563;DHT22;16392;52.508;13.468;2024-01-15T01:56:05;2.00;99.90
8563;DHT22;16392;52.508;13.468;2024-01-15T01:58:34;1.90;99.90
8563;DHT22;16392;52.508;13.468;2024-01-15T02:01:00;1.90;99.90
8563;DHT22;16392;52.508;13.468;2024-01-15T02:03:27;1.90;99.90
8563;DHT22;16392;52.508;13.468;2024-01-15T02:05:54;1.90;99.90
8563;DHT22;16392;52.508;13.468;2024-01-15T02:08:21;2.00;99.90
8563;DHT22;16392;52.508;13.468;2024-01-15T02:10:48;2.00;99.90
8563;DHT22;16392;52.508;13.468;2024-01-15T02:13:15;2.00;99.90
8563;DHT22;16392;52.508;13.468;2024-01-15T02:15:43;2.00;99.90
8563;DHT22;16392;52.508;13.468;2024-01-15T02:18:09;2.00;99.90
8563;DHT22;16392;52.508;13.468;2024-01-15T02:20:36;2.00;99.90
8563;DHT22;16392;52.508;13.468;2024-01-15T02:23:11;1.90;99.90
8563;DHT22;16392;52.508;13.468;2024-01-15T02:25:39;1.90;99.90
8563;DHT22;16392;52.508;13.468;2024-01-15T02:28:07;1.90;99.90
8563;DHT22;16392;52.508;13.468;2024-01-15T02:30:37;1.90;99.90
8563;DHT22;16392;52.508;13.468;2024-01-15T02:33:05;1.90;99.90
8563;DHT22;16392;52.508;13.468;2024-01-15T02:35:32;1.90;99.90
8563;DHT22;16392;52.508;13.468;2024-01-15T02:37:59;2.00;99.90
8563;DHT22;16392;52.508;13.468;2024-01-15T02:40:27;2.00;99.90
8563;DHT22;16392;52.508;13.468;2024-01-15T02:42:54;2.00;99.90
8563;DHT22;16392;52.508;13.468;2024-01-15T02:45:21;2.00;99.90
8563;DHT22;16392;52.508;13.468;2024-01-15T02:47:48;1.90;99.90
8563;DHT22;16392;52.508;13.468;2024-01-15T02:50:15;2.00;99.90
8563;DHT22;16392;52.508;13.468;2024-01-15T02:52:42;1.90;99.90
8563;DHT22;16392;52.508;13.468;2024-01-15T02:55:09;1.90;99.90
8563;DHT22;16392;52.508;13.468;2024-01-15T02:57:37;1.90;99.90
8563;DHT22;16392;52.508;13.468;2024-01-15T03:00:05;1.90;99.90
8563;DHT22;16392;52.508;13.468;2024-01-15T03:02:32;1.90;99.90
8563;DHT22;16392;52.508;13.468;2024-01-15T03:04:59;2.00;99.90
8563;DHT22;16392;52.508;13.468;2024-01-15T03:07:27;2.00;99.90
8563;DHT22;16392;52.508;13.468;2024-01-15T03:09:54;2.00;99.90
8563;DHT22;16392;52.508;13.468;2024-01-15T03:12:21;2.10;99.90
8563;DHT22;16392;52.508;13.468;2024-01-15T03:14:49;2.10;99.90
8563;DHT22;16392;52.508;13.468;2024-01-15T03:17:16;2.10;99.90
8563;DHT22;16392;52.508;13.468;2024-01-15T03:19:43;2.10;99.90
8563;DHT22;16392;52.508;13.468;2024-01-15T03:22:09;2.10;99.90
8563;DHT22;16392;52.508;13.468;2024-01-15T03:24:36;2.10;99.90
8563;DHT22;16392;52.508;13.468;2024-01-15T03:27:03;2.10;99.90
8563;DHT22;16392;52.508;13.468;2024-01-15T03:29:30;2.10;99.90
8563;DHT22;16392;52.508;13.468;2024-01-15T03:31:58;2.10;99.90
8563;DHT22;16392;52.508;13.468;2024-01-15T03:34:25;2.10;99.90
8563;DHT22;16392;52.508;13.468;2024-01-15T03:36:51;2.10;99.90
8563;DHT22;16392;52.508;13.468;2024-01-15T03:39:18;2.10;99.90
8563;DHT22;16392;52.508;13.468;2024-01-15T03:41:45;2.10;99.90
8563;DHT22;16392;52.508;13.468;2024-01-15T03:44:11;2.10;99.90
8563;DHT22;16392;52.508;13.468;2024-01-15T03:46:38;2.10;99.90
8563;DHT22;16392;52.508;13.468;2024-01-15T03:49:06;2.10;99.90
8563;DHT22;16392;52.508;13.468;2024-01-15T03:51:33;2.20;99.90
8563;DHT22;16392;52.508;13.468;2024-01-15T03:54:01;2.20;99.90
8563;DHT22;16392;52.508;13.468;2024-01-15T03:56:27;2.20;99.90
8563;DHT22;16392;52.508;13.468;2024-01-15T03:58:54;2.20;99.90
8563;DHT22;16392;52.508;13.468;2024-01-15T04:01:20;2.20;99.90
8563;DHT22;16392;52.508;13.468;2024-01-15T04:03:47;2.20;99.90
8563;DHT22;16392;52.508;13.468;2024-01-15T04:06:15;2.20;99.90
8563;DHT22;16392;52.508;13.468;2024-01-15T04:08:42;2.30;99.90
8563;DHT22;16392;52.508;13.468;2024-01-15T04:11:09;2.30;99.90
8563;DHT22;16392;52.508;13.468;2024-01-15T04:13:36;2.30;99.90
8563;DHT22;16392;52.508;13.468;2024-01-15T04:16:03;2.30;99.90
8563;DHT22;16392;52.508;13.468;2024-01-15T04:18:30;2.20;99.90
8563;DHT22;16392;52.508;13.468;2024-01-15T04:20:57;2.30;99.90
8563;DHT22;16392;52.508;13.468;2024-01-15T04:23:25;2.30;99.90
8563;DHT22;16392;52.508;13.468;2024-01-15T04:25:52;2.30;99.90
8563;DHT22;16392;52.508;13.468;2024-01-15T04:28:19;2.30;99.90
8563;DHT22;16392;52.508;13.468;2024-01-15T04:30:45;2.30;99.90
8563;DHT22;16392;52.508;13.468;2024-01-15T04:33:12;2.30;99.90
8563;DHT22;16392;52.508;13.468;2024-01-15T04:35:39;2.30;99.90
8563;DHT22;16392;52.508;13.468;2024-01-15T04:38:05;2.30;99.90
8563;DHT22;16392;52.508;13.468;2024-01-15T04:40:34;2.40;99.90
8563;DHT22;16392;52.508;13.468;2024-01-15T04:43:00;2.30;99.90
8563;DHT22;16392;52.508;13.468;2024-01-15T04:45:27;2.40;99.90
8563;DHT22;16392;52.508;13.468;2024-01-15T04:47:54;2.40;99.90
8563;DHT22;16392;52.508;13.468;2024-01-15T04:50:22;2.40;99.90
8563;DHT22;16392;52.508;13.468;2024-01-15T04:52:49;2.40;99.90
8563;DHT22;16392;52.508;13.468;2024-01-15T04:55:16;2.40;99.90
8563;DHT22;16392;52.508;13.468;2024-01-15T04:57:44;2.40;99.90
8563;DHT22;16392;52.508;13.468;2024-01-15T05:00:11;2.40;99.90
8563;DHT22;16392;52.508;13.468;2024-01-15T05:02:38;2.40;99.90
8563;DHT22;16392;52.508;13.468;2024-01-15T05:05:05;2.40;99.90
8563;DHT22;16392;52.508;13.468;2024-01-15T05:07:32;2.40;99.90
8563;DHT22;16392;52.508;13.468;2024-01-15T05:09:59;2.40;99.90
8563;DHT22;16392;52.508;13.468;2024-01-15T05:12:25;2.40;99.90
8563;DHT22;16392;52.508;13.468;2024-01-15T05:14:53;2.50;99.90
8563;DHT22;16392;52.508;13.468;2024-01-15T05:17:20;2.50;99.90
8563;DHT22;16392;52.508;13.468;2024-01-15T05:19:47;2.50;99.90
8563;DHT22;16392;52.508;13.468;2024-01-15T05:22:13;2.50;99.90
8563;DHT22;16392;52.508;13.468;2024-01-15T05:24:40;2.50;99.90
8563;DHT22;16392;52.508;13.468;2024-01-15T05:27:07;2.50;99.90
8563;DHT22;16392;52.508;13.468;2024-01-15T05:29:34;2.50;99.90
8563;DHT22;16392;52.508;13.468;2024-01-15T05:32:02;2.50;99.90
8563;DHT22;16392;52.508;13.468;2024-01-15T05:34:29;2.50;99.90
8563;DHT22;16392;52.508;13.468;2024-01-15T05:36:56;2.50;99.90
8563;DHT22;16392;52.508;13.468;2024-01-15T05:39:22;2.50;99.90
8563;DHT22;16392;52.508;13.468;2024-01-15T05:41:49;2.50;99.90
8563;DHT22;16392;52.508;13.468;2024-01-15T05:44:16;2.50;99.90
8563;DHT22;16392;52.508;13.468;2024-01-15T05:46:42;2.50;99.90
8563;DHT22;16392;52.508;13.468;2024-01-15T05:49:10;2.50;99.90
8563;DHT22;16392;52.508;13.468;2024-01-15T05:51:37;2.60;99.90
8563;DHT22;16392;52.508;13.468;2024-01-15T05:54:04;2.60;99.90
8563;DHT22;16392;52.508;13.468;2024-01-15T05:56:31;2.60;99.90
8563;DHT22;16392;52.508;13.468;2024-01-15T05:58:58;2.60;99.90
8563;DHT22;16392;52.508;13.468;2024-01-15T06:01:25;2.60;99.90
8563;DHT22;16392;52.508;13.468;2024-01-15T06:03:52;2.60;99.90
8563;DHT22;16392;52.508;13.468;2024-01-15T06:06:20;2.50;99.90
8563;DHT22;16392;52.508;13.468;2024-01-15T06:08:46;2.50;99.90
8563;DHT22;16392;52.508;13.468;2024-01-15T06:11:13;2.40;99.90
8563;DHT22;16392;52.508;13.468;2024-01-15T06:13:40;2.40;99.90
8563;DHT22;16392;52.508;13.468;2024-01-15T06:16:13;2.40;99.90
8563;DHT22;16392;52.508;13.468;2024-01-15T06:18:40;2.50;99.90
8563;DHT22;16392;52.508;13.468;2024-01-15T06:21:07;2.50;99.90
8563;DHT22;16392;52.508;13.468;2024-01-15T06:23:37;2.50;99.90
8563;DHT22;16392;52.508;13.468;2024-01-15T06:26:06;2.50;99.90
8563;DHT22;16392;52.508;13.468;2024-01-15T06:28:33;2.50;99.90
8563;DHT22;16392;52.508;13.468;2024-01-15T06:31:00;2.60;99.90
8563;DHT22;16392;52.508;13.468;2024-01-15T06:33:26;2.60;99.90
8563;DHT22;16392;52.508;13.468;2024-01-15T06:35:53;2.70;99.90
8563;DHT22;16392;52.508;13.468;2024-01-15T06:38:19;2.70;99.90
8563;DHT22;16392;52.508;13.468;2024-01-15T06:40:47;2.80;99.90
8563;DHT22;16392;52.508;13.468;2024-01-15T06:43:14;2.80;99.90
8563;DHT22;16392;52.508;13.468;2024-01-15T06:45:41;2.70;99.90
8563;DHT22;16392;52.508;13.468;2024-01-15T06:48:08;2.70;99.90
8563;DHT22;16392;52.508;13.468;2024-01-15T06:50:35;2.70;99.90
8563;DHT22;16392;52.508;13.468;2024-01-15T06:53:02;2.70;99.90
8563;DHT22;16392;52.508;13.468;2024-01-15T06:55:30;2.60;99.90
8563;DHT22;16392;52.508;13.468;2024-01-15T06:57:58;2.70;99.90
8563;DHT22;16392;52.508;13.468;2024-01-15T07:00:25;2.70;99.90
8563;DHT22;16392;52.508;13.468;2024-01-15T07:02:52;2.70;99.90
8563;DHT22;16392;52.508;13.468;2024-01-15T07:05:20;2.70;99.90
8563;DHT22;16392;52.508;13.468;2024-01-15T07:07:47;2.70;99.90
8563;DHT22;16392;52.508;13.468;2024-01-15T07:10:14;2.70;99.90
8563;DHT22;16392;52.508;13.468;2024-01-15T07:12:41;2.70;99.90
8563;DHT22;16392;52.508;13.468;2024-01-15T07:15:10;2.70;99.90
8563;DHT22;16392;52.508;13.468;2024-01-15T07:17:37;2.80;99.90
8563;DHT22;16392;52.508;13.468;2024-01-15T07:20:06;2.80;99.90
8563;DHT22;16392;52.508;13.468;2024-01-15T07:22:33;2.80;99.90
8563;DHT22;16392;52.508;13.468;2024-01-15T07:25:00;2.90;99.90
8563;DHT22;16392;52.508;13.468;2024-01-15T07:27:26;2.90;99.90
8563;DHT22;16392;52.508;13.468;2024-01-15T07:29:53;2.90;99.90
8563;DHT22;16392;52.508;13.468;2024-01-15T07:32:21;2.90;99.90
8563;DHT22;16392;52.508;13.468;2024-01-15T07:34:48;2.90;99.90
8563;DHT22;16392;52.508;13.468;2024-01-15T07:37:15;2.90;99.90
8563;DHT22;16392;52.508;13.468;2024-01-15T07:39:42;2.90;82.40
8563;DHT22;16392;52.508;13.468;2024-01-15T07:42:08;3.00;2.60
8563;DHT22;16392;52.508;13.468;2024-01-15T07:44:36;3.00;1.00
8563;DHT22;16392;52.508;13.468;2024-01-15T07:47:03;3.00;1.00
8563;DHT22;16392;52.508;13.468;2024-01-15T07:49:31;3.00;1.00
8563;DHT22;16392;52.508;13.468;2024-01-15T07:51:58;3.00;1.00
8563;DHT22;16392;52.508;13.468;2024-01-15T07:54:24;3.10;1.00
8563;DHT22;16392;52.508;13.468;2024-01-15T07:56:55;3.10;1.00
8563;DHT22;16392;52.508;13.468;2024-01-15T07:59:23;3.10;1.00
8563;DHT22;16392;52.508;13.468;2024-01-15T08:01:50;3.10;1.00
8563;DHT22;16392;52.508;13.468;2024-01-15T08:04:16;3.10;1.00
8563;DHT22;16392;52.508;13.468;2024-01-15T08:06:45;3.10;1.00
8563;DHT22;16392;52.508;13.468;2024-01-15T08:09:12;3.10;1.00
8563;DHT22;16392;52.508;13.468;2024-01-15T08:11:39;3.20;1.00
8563;DHT22;16392;52.508;13.468;2024-01-15T08:14:06;3.20;99.90
8563;DHT22;16392;52.508;13.468;2024-01-15T08:16:33;3.20;99.90
8563;DHT22;16392;52.508;13.468;2024-01-15T08:19:00;3.30;99.90
8563;DHT22;16392;52.508;13.468;2024-01-15T08:21:27;3.30;99.90
8563;DHT22;16392;52.508;13.468;2024-01-15T08:23:57;3.30;99.90
8563;DHT22;16392;52.508;13.468;2024-01-15T08:26:23;3.20;1.00
8563;DHT22;16392;52.508;13.468;2024-01-15T08:28:50;3.20;1.00
8563;DHT22;16392;52.508;13.468;2024-01-15T08:31:17;3.20;1.00
8563;DHT22;16392;52.508;13.468;2024-01-15T08:33:44;3.20;1.00
8563;DHT22;16392;52.508;13.468;2024-01-15T08:36:11;3.30;1.00
8563;DHT22;16392;52.508;13.468;2024-01-15T08:38:38;3.30;1.00
8563;DHT22;16392;52.508;13.468;2024-01-15T08:41:06;3.30;1.00
8563;DHT22;16392;52.508;13.468;2024-01-15T08:43:33;3.30;99.90
8563;DHT22;16392;52.508;13.468;2024-01-15T08:46:00;3.30;99.90
8563;DHT22;16392;52.508;13.468;2024-01-15T08:48:28;3.30;1.00
8563;DHT22;16392;52.508;13.468;2024-01-15T08:50:55;3.30;99.90
8563;DHT22;16392;52.508;13.468;2024-01-15T08:53:22;3.30;1.00
8563;DHT22;16392;52.508;13.468;2024-01-15T08:55:49;3.30;1.00
8563;DHT22;16392;52.508;13.468;2024-01-15T08:58:17;3.30;99.90
8563;DHT22;16392;52.508;13.468;2024-01-15T09:00:44;3.30;99.90
8563;DHT22;16392;52.508;13.468;2024-01-15T09:03:11;3.30;99.90
8563;DHT22;16392;52.508;13.468;2024-01-15T09:05:37;3.30;99.90
8563;DHT22;16392;52.508;13.468;2024-01-15T09:08:04;3.30;99.90
8563;DHT22;16392;52.508;13.468;2024-01-15T09:10:31;3.30;99.90
8563;DHT22;16392;52.508;13.468;2024-01-15T09:12:58;3.30;99.90
8563;DHT22;16392;52.508;13.468;2024-01-15T09:15:27;3.30;99.90
8563;DHT22;16392;52.508;13.468;2024-01-15T09:17:54;3.40;1.00
8563;DHT22;16392;52.508;13.468;2024-01-15T09:20:20;3.40;99.90
8563;DHT22;16392;52.508;13.468;2024-01-15T09:22:47;3.40;1.00
8563;DHT22;16392;52.508;13.468;2024-01-15T09:25:14;3.30;1.00
8563;DHT22;16392;52.508;13.468;2024-01-15T09:27:41;3.40;1.00
8563;DHT22;16392;52.508;13.468;2024-01-15T09:30:08;3.30;1.00
8563;DHT22;16392;52.508;13.468;2024-01-15T09:32:36;3.30;1.00
8563;DHT22;16392;52.508;13.468;2024-01-15T09:35:03;3.40;1.00
8563;DHT22;16392;52.508;13.468;2024-01-15T09:37:30;3.50;99.90
8563;DHT22;16392;52.508;13.468;2024-01-15T09:39:57;3.50;99.90
8563;DHT22;16392;52.508;13.468;2024-01-15T09:42:24;3.50;99.90
8563;DHT22;16392;52.508;13.468;2024-01-15T09:44:52;3.40;99.90
8563;DHT22;16392;52.508;13.468;2024-01-15T09:47:20;3.40;60.30
8563;DHT22;16392;52.508;13.468;2024-01-15T09:49:51;3.50;73.50
8563;DHT22;16392;52.508;13.468;2024-01-15T09:52:19;3.70;1.00
8563;DHT22;16392;52.508;13.468;2024-01-15T09:54:46;3.90;99.90
8563;DHT22;16392;52.508;13.468;2024-01-15T09:57:12;4.10;1.00
8563;DHT22;16392;52.508;13.468;2024-01-15T09:59:40;4.10;1.00
8563;DHT22;16392;52.508;13.468;2024-01-15T10:02:10;4.10;1.00
8563;DHT22;16392;52.508;13.468;2024-01-15T10:04:40;3.90;1.00
8563;DHT22;16392;52.508;13.468;2024-01-15T10:07:08;3.90;1.00
8563;DHT22;16392;52.508;13.468;2024-01-15T10:09:35;3.90;63.20
8563;DHT22;16392;52.508;13.468;2024-01-15T10:12:02;3.90;99.90
8563;DHT22;16392;52.508;13.468;2024-01-15T10:14:30;3.90;99.90
8563;DHT22;16392;52.508;13.468;2024-01-15T10:16:59;3.90;99.90
8563;DHT22;16392;52.508;13.468;2024-01-15T10:19:25;3.90;99.90
8563;DHT22;16392;52.508;13.468;2024-01-15T10:21:53;4.00;99.90
8563;DHT22;16392;52.508;13.468;2024-01-15T10:24:21;3.90;1.00
8563;DHT22;16392;52.508;13.468;2024-01-15T10:26:47;3.90;1.00
8563;DHT22;16392;52.508;13.468;2024-01-15T10:29:15;4.00;1.00
8563;DHT22;16392;52.508;13.468;2024-01-15T10:31:41;4.10;1.00
8563;DHT22;16392;52.508;13.468;2024-01-15T10:34:11;4.10;1.00
8563;DHT22;16392;52.508;13.468;2024-01-15T10:36:41;4.20;1.00
8563;DHT22;16392;52.508;13.468;2024-01-15T10:39:07;4.20;1.00
8563;DHT22;16392;52.508;13.468;2024-01-15T10:41:35;4.10;1.00
8563;DHT22;16392;52.508;13.468;2024-01-15T10:44:02;4.00;1.00
8563;DHT22;16392;52.508;13.468;2024-01-15T10:46:30;4.00;99.90
8563;DHT22;16392;52.508;13.468;2024-01-15T10:48:57;4.00;99.90
8563;DHT22;16392;52.508;13.468;2024-01-15T10:51:23;4.00;1.00
8563;DHT22;16392;52.508;13.468;2024-01-15T10:53:53;4.00;99.90
8563;DHT22;16392;52.508;13.468;2024-01-15T10:56:21;4.00;99.90
8563;DHT22;16392;52.508;13.468;2024-01-15T10:58:49;4.00;1.00
8563;DHT22;16392;52.508;13.468;2024-01-15T11:01:16;4.00;1.00
8563;DHT22;16392;52.508;13.468;2024-01-15T11:03:45;4.00;41.10
8563;DHT22;16392;52.508;13.468;2024-01-15T11:06:19;4.10;99.90
8563;DHT22;16392;52.508;13.468;2024-01-15T11:08:48;4.10;1.00
8563;DHT22;16392;52.508;13.468;2024-01-15T11:11:16;4.30;99.90
8563;DHT22;16392;52.508;13.468;2024-01-15T11:13:46;4.40;1.00
8563;DHT22;16392;52.508;13.468;2024-01-15T11:16:17;4.50;1.00
8563;DHT22;16392;52.508;13.468;2024-01-15T11:19:01;4.50;41.40
8563;DHT22;16392;52.508;13.468;2024-01-15T11:21:28;4.40;1.00
8563;DHT22;16392;52.508;13.468;2024-01-15T11:23:57;4.30;99.90
8563;DHT22;16392;52.508;13.468;2024-01-15T11:26:28;4.10;1.00
8563;DHT22;16392;52.508;13.468;2024-01-15T11:28:55;4.00;99.90
8563;DHT22;16392;52.508;13.468;2024-01-15T11:31:27;4.00;1.00
8563;DHT22;16392;52.508;13.468;2024-01-15T11:33:54;3.90;99.90
8563;DHT22;16392;52.508;13.468;2024-01-15T11:36:21;4.00;1.00
8563;DHT22;16392;52.508;13.468;2024-01-15T11:38:48;4.00;1.00
8563;DHT22;16392;52.508;13.468;2024-01-15T11:41:15;4.00;99.90
8563;DHT22;16392;52.508;13.468;2024-01-15T11:43:42;4.00;99.90
8563;DHT22;16392;52.508;13.468;2024-01-15T11:46:11;4.00;99.90
8563;DHT22;16392;52.508;13.468;2024-01-15T11:48:43;3.90;1.00
8563;DHT22;16392;52.508;13.468;2024-01-15T11:51:11;3.90;1.00
8563;DHT22;16392;52.508;13.468;2024-01-15T11:53:43;3.90;99.90
8563;DHT22;16392;52.508;13.468;2024-01-15T11:56:15;3.70;1.00
8563;DHT22;16392;52.508;13.468;2024-01-15T11:58:42;3.40;62.70
8563;DHT22;16392;52.508;13.468;2024-01-15T12:01:10;3.20;99.90
8563;DHT22;16392;52.508;13.468;2024-01-15T12:03:36;3.00;99.90
8563;DHT22;16392;52.508;13.468;2024-01-15T12:06:07;2.70;99.90
8563;DHT22;16392;52.508;13.468;2024-01-15T12:08:33;2.60;99.90
8563;DHT22;16392;52.508;13.468;2024-01-15T12:11:05;2.70;99.90
8563;DHT22;16392;52.508;13.468;2024-01-15T12:13:33;2.70;99.90
8563;DHT22;16392;52.508;13.468;2024-01-15T12:16:01;2.80;99.90
8563;DHT22;16392;52.508;13.468;2024-01-15T12:18:29;2.90;99.90
8563;DHT22;16392;52.508;13.468;2024-01-15T12:20:56;2.90;99.90
8563;DHT22;16392;52.508;13.468;2024-01-15T12:23:25;3.00;99.90
8563;DHT22;16392;52.508;13.468;2024-01-15T12:25:53;3.00;99.90
8563;DHT22;16392;52.508;13.468;2024-01-15T12:28:19;3.00;99.90
8563;DHT22;16392;52.508;13.468;2024-01-15T12:30:47;3.00;99.90
8563;DHT22;16392;52.508;13.468;2024-01-15T12:33:17;3.00;99.90
8563;DHT22;16392;52.508;13.468;2024-01-15T12:35:44;3.00;99.90
8563;DHT22;16392;52.508;13.468;2024-01-15T12:38:11;3.00;99.90
8563;DHT22;16392;52.508;13.468;2024-01-15T12:40:39;3.00;99.90
8563;DHT22;16392;52.508;13.468;2024-01-15T12:43:06;3.00;99.90
8563;DHT22;16392;52.508;13.468;2024-01-15T12:45:33;3.00;99.90
8563;DHT22;16392;52.508;13.468;2024-01-15T12:48:00;3.00;99.90
8563;DHT22;16392;52.508;13.468;2024-01-15T12:50:29;2.80;99.90
8563;DHT22;16392;52.508;13.468;2024-01-15T12:52:55;2.80;99.90
8563;DHT22;16392;52.508;13.468;2024-01-15T12:55:22;2.70;99.90
8563;DHT22;16392;52.508;13.468;2024-01-15T12:57:50;2.60;99.90
8563;DHT22;16392;52.508;13.468;2024-01-15T13:00:19;2.70;99.90
8563;DHT22;16392;52.508;13.468;2024-01-15T13:02:46;2.60;99.90
8563;DHT22;16392;52.508;13.468;2024-01-15T13:05:13;2.60;99.90
8563;DHT22;16392;52.508;13.468;2024-01-15T13:07:40;2.70;99.90
8563;DHT22;16392;52.508;13.468;2024-01-15T13:10:07;2.70;99.90
8563;DHT22;16392;52.508;13.468;2024-01-15T13:12:35;2.80;99.90
8563;DHT22;16392;52.508;13.468;2024-01-15T13:15:03;2.90;99.90
8563;DHT22;16392;52.508;13.468;2024-01-15T13:17:30;2.90;99.90
8563;DHT22;16392;52.508;13.468;2024-01-15T13:19:57;2.90;99.90
8563;DHT22;16392;52.508;13.468;2024-01-15T13:22:24;2.80;99.90
8563;DHT22;16392;52.508;13.468;2024-01-15T13:24:55;2.90;99.90
8563;DHT22;16392;52.508;13.468;2024-01-15T13:27:21;2.90;99.90
8563;DHT22;16392;52.508;13.468;2024-01-15T13:29:48;2.90;99.90
8563;DHT22;16392;52.508;13.468;2024-01-15T13:32:24;2.90;99.90
8563;DHT22;16392;52.508;13.468;2024-01-15T13:34:52;2.90;99.90
8563;DHT22;16392;52.508;13.468;2024-01-15T13:37:19;2.90;99.90
8563;DHT22;16392;52.508;13.468;2024-01-15T13:39:45;2.90;99.90
8563;DHT22;16392;52.508;13.468;2024-01-15T13:42:12;2.90;99.90
8563;DHT22;16392;52.508;13.468;2024-01-15T13:44:39;2.90;99.90
8563;DHT22;16392;52.508;13.468;2024-01-15T13:47:05;2.90;99.90
8563;DHT22;16392;52.508;13.468;2024-01-15T13:49:33;2.90;99.90
8563;DHT22;16392;52.508;13.468;2024-01-15T13:52:01;2.80;99.90
8563;DHT22;16392;52.508;13.468;2024-01-15T13:54:29;2.70;99.90
8563;DHT22;16392;52.508;13.468;2024-01-15T13:56:56;2.70;99.90
8563;DHT22;16392;52.508;13.468;2024-01-15T13:59:24;2.70;99.90
8563;DHT22;16392;52.508;13.468;2024-01-15T14:01:51;2.70;99.90
8563;DHT22;16392;52.508;13.468;2024-01-15T14:04:17;2.80;99.90
8563;DHT22;16392;52.508;13.468;2024-01-15T14:06:46;2.80;99.90
8563;DHT22;16392;52.508;13.468;2024-01-15T14:09:13;2.80;99.90
8563;DHT22;16392;52.508;13.468;2024-01-15T14:11:40;2.90;99.90
8563;DHT22;16392;52.508;13.468;2024-01-15T14:14:07;2.90;99.90
8563;DHT22;16392;52.508;13.468;2024-01-15T14:16:34;2.90;99.90
8563;DHT22;16392;52.508;13.468;2024-01-15T14:19:01;2.90;99.90
8563;DHT22;16392;52.508;13.468;2024-01-15T14:21:28;2.90;99.90
8563;DHT22;16392;52.508;13.468;2024-01-15T14:23:56;2.90;99.90
8563;DHT22;16392;52.508;13.468;2024-01-15T14:26:23;2.90;99.90
8563;DHT22;16392;52.508;13.468;2024-01-15T14:28:50;2.90;99.90
8563;DHT22;16392;52.508;13.468;2024-01-15T14:31:17;2.90;99.90
8563;DHT22;16392;52.508;13.468;2024-01-15T14:33:45;2.90;99.90
8563;DHT22;16392;52.508;13.468;2024-01-15T14:36:12;2.90;99.90
8563;DHT22;16392;52.508;13.468;2024-01-15T14:38:39;2.90;99.90
8563;DHT22;16392;52.508;13.468;2024-01-15T14:41:06;2.90;99.90
8563;DHT22;16392;52.508;13.468;2024-01-15T14:43:33;2.90;99.90
8563;DHT22;16392;52.508;13.468;2024-01-15T14:46:00;2.90;99.90
8563;DHT22;16392;52.508;13.468;2024-01-15T14:48:26;2.90;99.90
8563;DHT22;16392;52.508;13.468;2024-01-15T14:50:53;2.90;99.90
8563;DHT22;16392;52.508;13.468;2024-01-15T14:53:20;2.90;99.90
8563;DHT22;16392;52.508;13.468;2024-01-15T14:55:47;2.90;99.90
8563;DHT22;16392;52.508;13.468;2024-01-15T14:58:16;2.90;99.90
8563;DHT22;16392;52.508;13.468;2024-01-15T15:00:42;2.80;99.90
8563;DHT22;16392;52.508;13.468;2024-01-15T15:03:10;2.80;99.90
8563;DHT22;16392;52.508;13.468;2024-01-15T15:05:39;2.80;99.90
8563;DHT22;16392;52.508;13.468;2024-01-15T15:08:06;2.80;99.90
8563;DHT22;16392;52.508;13.468;2024-01-15T15:10:34;2.70;99.90
8563;DHT22;16392;52.508;13.468;2024-01-15T15:13:01;2.70;99.90
8563;DHT22;16392;52.508;13.468;2024-01-15T15:15:29;2.70;99.90
8563;DHT22;16392;52.508;13.468;2024-01-15T15:17:55;2.70;99.90
8563;DHT22;16392;52.508;13.468;2024-01-15T15:20:22;2.70;99.90
8563;DHT22;16392;52.508;13.468;2024-01-15T15:22:48;2.60;99.90
8563;DHT22;16392;52.508;13.468;2024-01-15T15:25:16;2.60;99.90
8563;DHT22;16392;52.508;13.468;2024-01-15T15:27:43;2.60;99.90
8563;DHT22;16392;52.508;13.468;2024-01-15T15:30:10;2.50;99.90
8563;DHT22;16392;52.508;13.468;2024-01-15T15:32:38;2.50;99.90
8563;DHT22;16392;52.508;13.468;2024-01-15T15:35:05;2.40;99.90
8563;DHT22;16392;52.508;13.468;2024-01-15T15:37:32;2.40;99.90
8563;DHT22;16392;52.508;13.468;2024-01-15T15:39:59;2.40;99.90
8563;DHT22;16392;52.508;13.468;2024-01-15T15:42:25;2.40;99.90
8563;DHT22;16392;52.508;13.468;2024-01-15T15:44:52;2.40;99.90
8563;DHT22;16392;52.508;13.468;2024-01-15T15:47:21;2.40;99.90